SAS315 ENHD-ENGM
Flight info
| Callsign | SAS315 |
|---|---|
| Flight time | 0h 32m |
| Altitude | 27000 |
| Route | ODINU DCT BOBGA DCT ADOPI |
| Aircraft | MD82/M-SDFGIRWY/S |
Departure
| Time | 2026-05-05 12:37 |
|---|---|
| Airport | Haugesund Airport, Karmøy (ENHD) |
Arrival
| Time | 2026-05-05 13:09 |
|---|---|
| Airport | Oslo-Gardermoen International Airport (ENGM) |
| Time | Latitude | Longitude | Altitude | Speed | Heading |
|---|---|---|---|---|---|
| 2026-05-05 12:06 | 59.34366 | 5.21705 | 97 ft | 0 kts | 43° |
| 2026-05-05 12:27 | 59.34352 | 5.21674 | 97 ft | 4 kts | 63° |
| 2026-05-05 12:27 | 59.34346 | 5.21626 | 96 ft | 4 kts | 89° |
| 2026-05-05 12:27 | 59.34346 | 5.21611 | 96 ft | 3 kts | 91° |
| 2026-05-05 12:31 | 59.34346 | 5.21616 | 99 ft | 3 kts | 97° |
| 2026-05-05 12:32 | 59.34314 | 5.21693 | 98 ft | 12 kts | 134° |
| 2026-05-05 12:32 | 59.34265 | 5.21827 | 99 ft | 12 kts | 125° |
| 2026-05-05 12:32 | 59.34206 | 5.21933 | 98 ft | 10 kts | 159° |
| 2026-05-05 12:32 | 59.34149 | 5.21887 | 97 ft | 10 kts | 221° |
| 2026-05-05 12:33 | 59.34090 | 5.21795 | 95 ft | 13 kts | 198° |
| 2026-05-05 12:33 | 59.34010 | 5.21877 | 92 ft | 14 kts | 134° |
| 2026-05-05 12:33 | 59.33948 | 5.22004 | 98 ft | 12 kts | 134° |
| 2026-05-05 12:33 | 59.33889 | 5.22122 | 96 ft | 12 kts | 134° |
| 2026-05-05 12:34 | 59.33833 | 5.22229 | 97 ft | 10 kts | 141° |
| 2026-05-05 12:34 | 59.33787 | 5.22306 | 100 ft | 8 kts | 106° |
| 2026-05-05 12:34 | 59.33774 | 5.22397 | 98 ft | 3 kts | 156° |
| 2026-05-05 12:34 | 59.33766 | 5.22388 | 101 ft | 1 kts | 239° |
| 2026-05-05 12:35 | 59.33768 | 5.22362 | 102 ft | 4 kts | 288° |
| 2026-05-05 12:35 | 59.33798 | 5.22298 | 99 ft | 0 kts | 315° |
| 2026-05-05 12:35 | 59.33799 | 5.22298 | 99 ft | 0 kts | 315° |
| 2026-05-05 12:36 | 59.33859 | 5.22178 | 96 ft | 47 kts | 314° |
| 2026-05-05 12:36 | 59.34269 | 5.21352 | 94 ft | 119 kts | 314° |
| 2026-05-05 12:36 | 59.34973 | 5.19962 | 215 ft | 162 kts | 314° |
| 2026-05-05 12:37 | 59.35765 | 5.18491 | 1189 ft | 150 kts | 315° |
| 2026-05-05 12:37 | 59.36516 | 5.17076 | 2011 ft | 152 kts | 315° |
| 2026-05-05 12:37 | 59.37405 | 5.15891 | 2684 ft | 161 kts | 336° |
| 2026-05-05 12:37 | 59.38541 | 5.15447 | 3298 ft | 174 kts | 354° |
| 2026-05-05 12:38 | 59.39822 | 5.15580 | 3749 ft | 201 kts | 8° |
| 2026-05-05 12:38 | 59.41206 | 5.16662 | 4176 ft | 229 kts | 29° |
| 2026-05-05 12:38 | 59.42363 | 5.19022 | 4667 ft | 250 kts | 58° |
| 2026-05-05 12:38 | 59.43125 | 5.22196 | 5250 ft | 267 kts | 65° |
| 2026-05-05 12:39 | 59.43825 | 5.25659 | 5971 ft | 275 kts | 67° |
| 2026-05-05 12:39 | 59.44522 | 5.29180 | 6792 ft | 279 kts | 65° |
| 2026-05-05 12:39 | 59.45302 | 5.32695 | 7561 ft | 282 kts | 63° |
| 2026-05-05 12:39 | 59.46113 | 5.36241 | 8337 ft | 287 kts | 63° |
| 2026-05-05 12:40 | 59.46941 | 5.39841 | 9154 ft | 290 kts | 63° |
| 2026-05-05 12:40 | 59.47780 | 5.43484 | 9964 ft | 295 kts | 63° |
| 2026-05-05 12:40 | 59.48645 | 5.47246 | 10365 ft | 313 kts | 63° |
| 2026-05-05 12:40 | 59.49577 | 5.51303 | 10566 ft | 336 kts | 63° |
| 2026-05-05 12:41 | 59.50560 | 5.55610 | 10834 ft | 353 kts | 63° |
| 2026-05-05 12:41 | 59.51571 | 5.60086 | 11350 ft | 361 kts | 63° |
| 2026-05-05 12:41 | 59.52592 | 5.64646 | 11925 ft | 365 kts | 64° |
| 2026-05-05 12:41 | 59.53598 | 5.69163 | 12655 ft | 366 kts | 63° |
| 2026-05-05 12:42 | 59.54628 | 5.73789 | 13386 ft | 370 kts | 63° |
| 2026-05-05 12:42 | 59.55667 | 5.78458 | 14019 ft | 375 kts | 63° |
| 2026-05-05 12:42 | 59.56723 | 5.83199 | 14533 ft | 381 kts | 63° |
| 2026-05-05 12:42 | 59.57802 | 5.88030 | 15002 ft | 388 kts | 62° |
| 2026-05-05 12:43 | 59.58896 | 5.92929 | 15523 ft | 393 kts | 62° |
| 2026-05-05 12:43 | 59.60008 | 5.97917 | 16003 ft | 400 kts | 62° |
| 2026-05-05 12:43 | 59.61133 | 6.02980 | 16534 ft | 405 kts | 62° |
| 2026-05-05 12:43 | 59.62257 | 6.08119 | 17026 ft | 411 kts | 62° |
| 2026-05-05 12:44 | 59.63385 | 6.13350 | 17526 ft | 418 kts | 62° |
| 2026-05-05 12:44 | 59.64534 | 6.18706 | 17798 ft | 430 kts | 62° |
| 2026-05-05 12:44 | 59.65729 | 6.24249 | 17901 ft | 446 kts | 62° |
| 2026-05-05 12:44 | 59.66970 | 6.29986 | 17956 ft | 462 kts | 62° |
| 2026-05-05 12:45 | 59.68258 | 6.35940 | 17961 ft | 479 kts | 63° |
| 2026-05-05 12:45 | 59.69593 | 6.42112 | 17629 ft | 498 kts | 63° |
| 2026-05-05 12:45 | 59.70905 | 6.48233 | 18488 ft | 454 kts | 63° |
| 2026-05-05 12:45 | 59.72127 | 6.54006 | 18315 ft | 468 kts | 63° |
| 2026-05-05 12:46 | 59.73425 | 6.60012 | 18494 ft | 471 kts | 62° |
| 2026-05-05 12:46 | 59.74699 | 6.65931 | 19072 ft | 467 kts | 62° |
| 2026-05-05 12:46 | 59.75966 | 6.71835 | 19853 ft | 463 kts | 62° |
| 2026-05-05 12:46 | 59.77223 | 6.77700 | 20664 ft | 461 kts | 62° |
| 2026-05-05 12:47 | 59.78468 | 6.83580 | 21239 ft | 465 kts | 62° |
| 2026-05-05 12:47 | 59.79718 | 6.89560 | 21593 ft | 473 kts | 62° |
| 2026-05-05 12:47 | 59.80980 | 6.95646 | 22032 ft | 479 kts | 62° |
| 2026-05-05 12:47 | 59.82259 | 7.01809 | 22400 ft | 486 kts | 62° |
| 2026-05-05 12:48 | 59.83556 | 7.08048 | 22853 ft | 491 kts | 62° |
| 2026-05-05 12:48 | 59.84869 | 7.14366 | 23251 ft | 496 kts | 62° |
| 2026-05-05 12:48 | 59.86194 | 7.20749 | 23624 ft | 502 kts | 62° |
| 2026-05-05 12:48 | 59.87534 | 7.27190 | 23996 ft | 505 kts | 62° |
| 2026-05-05 12:49 | 59.88880 | 7.33661 | 24485 ft | 506 kts | 62° |
| 2026-05-05 12:49 | 59.90225 | 7.40137 | 24927 ft | 507 kts | 63° |
| 2026-05-05 12:49 | 59.91577 | 7.46658 | 25321 ft | 511 kts | 63° |
| 2026-05-05 12:49 | 59.92937 | 7.53222 | 25721 ft | 514 kts | 63° |
| 2026-05-05 12:50 | 59.94292 | 7.59842 | 26130 ft | 517 kts | 63° |
| 2026-05-05 12:50 | 59.95629 | 7.66506 | 26522 ft | 520 kts | 64° |
| 2026-05-05 12:50 | 59.96969 | 7.73250 | 26771 ft | 526 kts | 64° |
| 2026-05-05 12:50 | 59.98323 | 7.80061 | 26883 ft | 529 kts | 64° |
| 2026-05-05 12:51 | 59.99672 | 7.86845 | 26930 ft | 517 kts | 64° |
| 2026-05-05 12:51 | 60.00976 | 7.93414 | 26938 ft | 503 kts | 63° |
| 2026-05-05 12:51 | 60.02251 | 7.99800 | 26956 ft | 500 kts | 63° |
| 2026-05-05 12:51 | 60.03569 | 8.06353 | 26961 ft | 503 kts | 63° |
| 2026-05-05 12:52 | 60.04775 | 8.12861 | 26962 ft | 510 kts | 72° |
| 2026-05-05 12:52 | 60.05280 | 8.19909 | 26968 ft | 516 kts | 91° |
| 2026-05-05 12:52 | 60.04881 | 8.27015 | 26965 ft | 513 kts | 107° |
| 2026-05-05 12:52 | 60.03998 | 8.33924 | 26944 ft | 513 kts | 106° |
| 2026-05-05 12:53 | 60.03570 | 8.41031 | 26945 ft | 516 kts | 91° |
| 2026-05-05 12:53 | 60.03631 | 8.48212 | 26937 ft | 516 kts | 88° |
| 2026-05-05 12:53 | 60.03715 | 8.55388 | 26934 ft | 516 kts | 90° |
| 2026-05-05 12:53 | 60.03703 | 8.62572 | 26760 ft | 520 kts | 92° |
| 2026-05-05 12:54 | 60.03437 | 8.76999 | 25975 ft | 512 kts | 94° |
| 2026-05-05 12:54 | 60.03251 | 8.84089 | 25484 ft | 510 kts | 94° |
| 2026-05-05 12:54 | 60.03068 | 8.91144 | 24948 ft | 506 kts | 94° |
| 2026-05-05 12:55 | 60.02893 | 8.98131 | 24412 ft | 502 kts | 94° |
| 2026-05-05 12:55 | 60.02728 | 9.05096 | 23872 ft | 498 kts | 94° |
| 2026-05-05 12:55 | 60.02674 | 9.07421 | 23675 ft | 498 kts | 94° |
| 2026-05-05 12:55 | 60.02553 | 9.12798 | 23184 ft | 495 kts | 94° |
| 2026-05-05 12:56 | 60.02398 | 9.19660 | 22514 ft | 492 kts | 94° |
| 2026-05-05 12:56 | 60.02214 | 9.26464 | 21856 ft | 488 kts | 94° |
| 2026-05-05 12:56 | 60.02015 | 9.33201 | 21210 ft | 484 kts | 94° |
| 2026-05-05 12:56 | 60.01811 | 9.39884 | 20556 ft | 478 kts | 94° |
| 2026-05-05 12:57 | 60.01615 | 9.46475 | 19933 ft | 471 kts | 94° |
| 2026-05-05 12:57 | 60.01430 | 9.52950 | 19330 ft | 464 kts | 94° |
| 2026-05-05 12:57 | 60.01249 | 9.59331 | 18717 ft | 457 kts | 94° |
| 2026-05-05 12:57 | 60.01069 | 9.65626 | 18084 ft | 450 kts | 94° |
| 2026-05-05 12:58 | 60.00895 | 9.71826 | 17308 ft | 441 kts | 93° |
| 2026-05-05 12:58 | 60.00728 | 9.77841 | 16535 ft | 428 kts | 93° |
| 2026-05-05 12:58 | 60.00566 | 9.83714 | 15775 ft | 418 kts | 92° |
| 2026-05-05 12:58 | 60.00406 | 9.89446 | 15034 ft | 408 kts | 92° |
| 2026-05-05 12:59 | 60.00247 | 9.95027 | 14310 ft | 396 kts | 92° |
| 2026-05-05 12:59 | 60.00077 | 10.00438 | 13590 ft | 384 kts | 94° |
| 2026-05-05 12:59 | 59.99742 | 10.05657 | 12804 ft | 373 kts | 97° |
| 2026-05-05 13:00 | 59.99166 | 10.15554 | 11505 ft | 348 kts | 93° |
| 2026-05-05 13:00 | 59.99009 | 10.20287 | 10970 ft | 335 kts | 91° |
| 2026-05-05 13:01 | 59.98678 | 10.33479 | 9630 ft | 301 kts | 91° |
| 2026-05-05 13:01 | 59.98577 | 10.37611 | 9126 ft | 295 kts | 91° |
| 2026-05-05 13:01 | 59.98472 | 10.41694 | 8638 ft | 293 kts | 91° |
| 2026-05-05 13:01 | 59.98356 | 10.45753 | 8159 ft | 292 kts | 91° |
| 2026-05-05 13:02 | 59.98238 | 10.49808 | 7685 ft | 293 kts | 91° |
| 2026-05-05 13:02 | 59.98126 | 10.53866 | 7207 ft | 292 kts | 91° |
| 2026-05-05 13:02 | 59.98014 | 10.57900 | 6725 ft | 290 kts | 91° |
| 2026-05-05 13:02 | 59.97898 | 10.61913 | 6281 ft | 289 kts | 92° |
| 2026-05-05 13:03 | 59.97780 | 10.65899 | 5885 ft | 286 kts | 91° |
| 2026-05-05 13:03 | 59.97672 | 10.69832 | 5540 ft | 280 kts | 91° |
| 2026-05-05 13:03 | 59.97564 | 10.73653 | 5242 ft | 271 kts | 91° |
| 2026-05-05 13:03 | 59.97459 | 10.77295 | 5104 ft | 256 kts | 91° |
| 2026-05-05 13:04 | 59.97421 | 10.80785 | 5031 ft | 248 kts | 82° |
| 2026-05-05 13:04 | 59.97716 | 10.84193 | 4796 ft | 249 kts | 74° |
| 2026-05-05 13:04 | 59.98133 | 10.87514 | 4542 ft | 245 kts | 72° |
| 2026-05-05 13:04 | 59.98567 | 10.90775 | 4268 ft | 241 kts | 72° |
| 2026-05-05 13:05 | 59.99031 | 10.93931 | 4117 ft | 231 kts | 61° |
| 2026-05-05 13:05 | 59.99975 | 10.96216 | 4028 ft | 212 kts | 23° |
| 2026-05-05 13:05 | 60.01299 | 10.97252 | 4129 ft | 204 kts | 21° |
| 2026-05-05 13:05 | 60.02586 | 10.98586 | 4061 ft | 208 kts | 14° |
| 2026-05-05 13:06 | 60.03976 | 10.99321 | 3737 ft | 204 kts | 8° |
| 2026-05-05 13:06 | 60.05344 | 10.99911 | 3439 ft | 199 kts | 8° |
| 2026-05-05 13:06 | 60.06668 | 11.00627 | 3125 ft | 195 kts | 11° |
| 2026-05-05 13:06 | 60.07963 | 11.01344 | 2940 ft | 190 kts | 10° |
| 2026-05-05 13:07 | 60.09248 | 11.02055 | 2768 ft | 192 kts | 11° |
| 2026-05-05 13:07 | 60.10539 | 11.02778 | 2504 ft | 194 kts | 12° |
| 2026-05-05 13:07 | 60.11836 | 11.03542 | 2197 ft | 191 kts | 11° |
| 2026-05-05 13:07 | 60.13081 | 11.04252 | 1919 ft | 180 kts | 11° |
| 2026-05-05 13:08 | 60.14219 | 11.04902 | 1723 ft | 167 kts | 10° |
| 2026-05-05 13:08 | 60.15320 | 11.05537 | 1391 ft | 163 kts | 11° |
| 2026-05-05 13:08 | 60.16387 | 11.06156 | 1120 ft | 156 kts | 12° |
| 2026-05-05 13:08 | 60.17403 | 11.06750 | 915 ft | 148 kts | 12° |
| 2026-05-05 13:09 | 60.18376 | 11.07292 | 738 ft | 142 kts | 12° |
| 2026-05-05 13:09 | 60.19270 | 11.07802 | 683 ft | 115 kts | 17° |
| 2026-05-05 13:09 | 60.19785 | 11.08099 | 689 ft | 49 kts | 18° |
| 2026-05-05 13:09 | 60.19940 | 11.08221 | 685 ft | 16 kts | 51° |
| 2026-05-05 13:10 | 60.19930 | 11.08322 | 685 ft | 7 kts | 133° |
| 2026-05-05 13:10 | 60.19893 | 11.08439 | 690 ft | 10 kts | 108° |
| 2026-05-05 13:10 | 60.19884 | 11.08498 | 689 ft | 6 kts | 108° |
| 2026-05-05 13:10 | 60.19871 | 11.08586 | 691 ft | 7 kts | 105° |
| 2026-05-05 13:11 | 60.19852 | 11.08683 | 687 ft | 7 kts | 122° |
| 2026-05-05 13:11 | 60.19818 | 11.08694 | 690 ft | 7 kts | 186° |
| 2026-05-05 13:11 | 60.19772 | 11.08762 | 689 ft | 9 kts | 106° |
| 2026-05-05 13:11 | 60.19752 | 11.08897 | 685 ft | 11 kts | 106° |
| 2026-05-05 13:12 | 60.19730 | 11.09048 | 689 ft | 12 kts | 105° |
| 2026-05-05 13:12 | 60.19707 | 11.09210 | 685 ft | 13 kts | 105° |
| 2026-05-05 13:12 | 60.19683 | 11.09387 | 686 ft | 13 kts | 105° |
| 2026-05-05 13:12 | 60.19663 | 11.09469 | 686 ft | 3 kts | 154° |
| 2026-05-05 13:13 | 60.19624 | 11.09460 | 692 ft | 9 kts | 194° |
| 2026-05-05 13:13 | 60.19584 | 11.09436 | 689 ft | 4 kts | 196° |
| 2026-05-05 13:13 | 60.19569 | 11.09427 | 688 ft | 2 kts | 196° |
| 2026-05-05 13:13 | 60.19567 | 11.09427 | 689 ft | 0 kts | 196° |